createdAt,value
2022-08-24T00:02:05.677Z,2.70
2022-08-24T00:04:35.028Z,2.97
2022-08-24T00:07:04.973Z,2.43
2022-08-24T00:09:36.182Z,2.43
2022-08-24T00:12:07.391Z,2.63
2022-08-24T00:14:36.194Z,2.70
2022-08-24T00:17:05.461Z,2.87
2022-08-24T00:19:34.064Z,2.70
2022-08-24T00:22:02.136Z,2.63
2022-08-24T00:24:30.316Z,2.50
2022-08-24T00:26:59.248Z,2.40
2022-08-24T00:29:28.705Z,2.60
2022-08-24T00:31:56.969Z,2.70
2022-08-24T00:34:25.585Z,2.50
2022-08-24T00:36:54.986Z,2.50
2022-08-24T00:39:23.217Z,2.80
2022-08-24T00:41:52.847Z,2.77
2022-08-24T00:44:22.035Z,2.63
2022-08-24T00:46:56.124Z,2.53
2022-08-24T00:49:34.804Z,2.40
2022-08-24T00:52:13.028Z,2.70
2022-08-24T00:54:46.467Z,2.50
2022-08-24T00:57:18.672Z,3.33
2022-08-24T00:59:53.261Z,2.67
2022-08-24T01:02:27.700Z,2.60
2022-08-24T01:04:59.763Z,2.63
2022-08-24T01:07:30.917Z,3.30
2022-08-24T01:10:03.842Z,2.90
2022-08-24T01:12:35.327Z,3.10
2022-08-24T01:15:07.052Z,2.80
2022-08-24T01:17:55.705Z,3.03
2022-08-24T01:20:26.504Z,3.10
2022-08-24T01:23:06.366Z,3.30
2022-08-24T01:25:39.090Z,2.70
2022-08-24T01:28:13.849Z,2.87
2022-08-24T01:30:44.720Z,2.70
2022-08-24T01:33:24.479Z,3.17
2022-08-24T01:36:02.130Z,2.90
2022-08-24T01:38:32.383Z,2.43
2022-08-24T01:41:04.909Z,2.47
2022-08-24T01:43:37.103Z,2.83
2022-08-24T01:46:07.948Z,2.53
2022-08-24T01:48:36.081Z,2.80
2022-08-24T01:51:04.491Z,3.03
2022-08-24T01:53:33.064Z,3.00
2022-08-24T01:56:02.494Z,2.80
2022-08-24T01:58:31.511Z,2.53
2022-08-24T02:01:00.538Z,3.17
2022-08-24T02:03:30.614Z,2.67
2022-08-24T02:06:00.056Z,2.57
2022-08-24T02:08:29.831Z,3.20
2022-08-24T02:10:57.916Z,3.07
2022-08-24T02:13:28.642Z,3.43
2022-08-24T02:15:57.879Z,2.53
2022-08-24T02:18:26.160Z,2.90
2022-08-24T02:20:54.407Z,2.87
2022-08-24T02:23:23.255Z,2.83
2022-08-24T02:25:51.837Z,2.90
2022-08-24T02:28:20.317Z,2.80
2022-08-24T02:30:50.678Z,3.20
2022-08-24T02:33:20.547Z,2.70
2022-08-24T02:35:49.045Z,3.20
2022-08-24T02:38:18.710Z,3.10
2022-08-24T02:40:47.214Z,2.63
2022-08-24T02:43:15.405Z,2.60
2022-08-24T02:45:50.213Z,2.40
2022-08-24T02:48:21.459Z,3.00
2022-08-24T02:50:52.197Z,3.20
2022-08-24T02:53:22.637Z,3.13
2022-08-24T02:55:51.329Z,3.03
2022-08-24T02:58:20.026Z,3.00
2022-08-24T03:00:50.316Z,2.70
2022-08-24T03:03:22.399Z,2.70
2022-08-24T03:05:50.579Z,2.80
2022-08-24T03:08:20.362Z,2.83
2022-08-24T03:10:48.459Z,2.70
2022-08-24T03:13:18.327Z,2.90
2022-08-24T03:15:47.177Z,2.90
2022-08-24T03:18:15.319Z,2.90
2022-08-24T03:20:44.844Z,2.70
2022-08-24T03:23:13.081Z,2.70
2022-08-24T03:25:41.146Z,3.20
2022-08-24T03:28:11.169Z,2.60
2022-08-24T03:30:40.494Z,2.60
2022-08-24T03:33:12.163Z,3.17
2022-08-24T03:35:40.748Z,3.20
2022-08-24T03:38:10.646Z,2.80
2022-08-24T03:40:40.016Z,2.77
2022-08-24T03:43:08.911Z,3.03
2022-08-24T03:45:37.054Z,2.90
2022-08-24T03:48:06.798Z,3.10
2022-08-24T03:50:35.286Z,3.50
2022-08-24T03:53:03.625Z,3.57
2022-08-24T03:55:33.229Z,2.90
2022-08-24T03:58:01.707Z,3.40
2022-08-24T04:00:29.757Z,2.80
2022-08-24T04:03:00.268Z,2.97
2022-08-24T04:05:29.122Z,2.83
2022-08-24T04:08:03.693Z,3.23
2022-08-24T04:10:35.981Z,3.23
2022-08-24T04:13:04.392Z,2.80
2022-08-24T04:15:33.901Z,3.60
2022-08-24T04:18:03.818Z,3.17
2022-08-24T04:20:31.867Z,3.83
2022-08-24T04:23:00.099Z,2.93
2022-08-24T04:25:29.539Z,2.97
2022-08-24T04:27:59.956Z,3.23
2022-08-24T04:30:28.074Z,2.70
2022-08-24T04:33:06.594Z,3.10
2022-08-24T04:35:40.122Z,2.80
2022-08-24T04:38:09.323Z,3.23
2022-08-24T04:40:40.991Z,3.20
2022-08-24T04:43:15.662Z,3.50
2022-08-24T04:45:51.352Z,3.13
2022-08-24T04:48:20.548Z,3.20
2022-08-24T04:50:49.279Z,2.97
2022-08-24T04:53:18.116Z,3.07
2022-08-24T04:55:51.115Z,3.17
2022-08-24T04:58:21.210Z,3.40
2022-08-24T05:00:50.039Z,3.17
2022-08-24T05:03:18.258Z,2.90
2022-08-24T05:05:51.926Z,3.40
2022-08-24T05:08:21.438Z,3.00
2022-08-24T05:10:51.142Z,3.17
2022-08-24T05:13:21.280Z,3.07
2022-08-24T05:15:50.721Z,3.27
2022-08-24T05:18:19.265Z,3.00
2022-08-24T05:20:48.618Z,3.43
2022-08-24T05:23:19.736Z,2.90
2022-08-24T05:25:47.873Z,3.30
2022-08-24T05:28:15.980Z,3.23
2022-08-24T05:30:45.506Z,2.97
2022-08-24T05:33:14.158Z,3.23
2022-08-24T05:35:43.822Z,3.00
2022-08-24T05:38:13.415Z,2.93
2022-08-24T05:40:42.162Z,3.13
2022-08-24T05:43:10.395Z,3.00
2022-08-24T05:45:41.767Z,3.10
2022-08-24T05:48:11.392Z,3.50
2022-08-24T05:50:55.236Z,3.17
2022-08-24T05:53:23.851Z,3.37
2022-08-24T05:55:53.454Z,3.37
2022-08-24T05:58:30.852Z,3.37
2022-08-24T06:01:08.638Z,2.87
2022-08-24T06:03:38.602Z,3.03
2022-08-24T06:06:09.941Z,3.30
2022-08-24T06:08:41.752Z,3.10
2022-08-24T06:11:36.079Z,3.30
2022-08-24T06:14:12.509Z,3.27
2022-08-24T06:16:53.665Z,3.17
2022-08-24T06:19:26.897Z,3.03
2022-08-24T06:21:56.522Z,3.73
2022-08-24T06:24:41.822Z,3.40
2022-08-24T06:27:22.060Z,3.30
2022-08-24T06:29:53.262Z,2.80
2022-08-24T06:32:46.597Z,3.27
2022-08-24T06:35:25.813Z,2.97
2022-08-24T06:37:54.262Z,3.17
2022-08-24T06:40:22.444Z,3.60
2022-08-24T06:42:50.589Z,3.53
2022-08-24T06:45:29.730Z,3.63
2022-08-24T06:47:58.062Z,3.40
2022-08-24T06:50:27.480Z,3.07
2022-08-24T06:52:57.437Z,3.10
2022-08-24T06:55:27.425Z,3.17
2022-08-24T06:57:56.201Z,2.83
2022-08-24T07:00:25.026Z,3.13
2022-08-24T07:02:53.461Z,3.37
2022-08-24T07:05:21.614Z,2.80
2022-08-24T07:08:10.551Z,3.10
2022-08-24T07:10:39.346Z,3.20
2022-08-24T07:13:07.457Z,2.70
2022-08-24T07:15:35.643Z,2.97
2022-08-24T07:18:14.253Z,2.57
2022-08-24T07:20:46.387Z,2.53
2022-08-24T07:23:22.165Z,3.00
2022-08-24T07:26:08.869Z,2.50
2022-08-24T07:28:39.044Z,2.70
2022-08-24T07:31:12.211Z,2.50
2022-08-24T07:33:45.068Z,2.90
2022-08-24T07:36:22.238Z,2.67
2022-08-24T07:38:53.462Z,2.50
2022-08-24T07:42:02.153Z,2.37
2022-08-24T07:44:15.496Z,2.20
2022-08-24T07:46:44.412Z,2.20
2022-08-24T07:49:31.549Z,2.37
2022-08-24T07:52:03.634Z,2.20
2022-08-24T07:54:33.934Z,2.33
2022-08-24T07:57:04.661Z,2.37
2022-08-24T07:59:34.321Z,2.30
2022-08-24T08:02:04.249Z,2.30
2022-08-24T08:04:32.679Z,2.53
2022-08-24T08:07:02.070Z,2.43
2022-08-24T08:09:34.497Z,2.20
2022-08-24T08:12:02.965Z,2.20
2022-08-24T08:14:31.931Z,2.30
2022-08-24T08:17:00.084Z,2.20
2022-08-24T08:19:28.187Z,2.07
2022-08-24T08:22:14.185Z,1.93
2022-08-24T08:25:02.460Z,2.10
2022-08-24T08:27:30.664Z,2.20
2022-08-24T08:29:58.812Z,2.00
2022-08-24T08:32:27.055Z,2.20
2022-08-24T08:35:00.150Z,2.43
2022-08-24T08:37:31.779Z,2.30
2022-08-24T08:40:00.407Z,2.33
2022-08-24T08:42:53.804Z,2.20
2022-08-24T08:45:44.991Z,2.57
2022-08-24T08:49:16.509Z,1.90
2022-08-24T08:52:24.695Z,1.70
2022-08-24T08:55:06.002Z,2.13
2022-08-24T08:57:56.282Z,2.30
2022-08-24T09:00:30.854Z,1.80
2022-08-24T09:03:30.882Z,2.10
2022-08-24T09:06:40.714Z,1.97
2022-08-24T09:09:31.839Z,2.20
2022-08-24T09:12:16.809Z,2.30
2022-08-24T09:15:15.410Z,2.20
2022-08-24T09:18:09.727Z,1.80
2022-08-24T09:21:00.542Z,1.93
2022-08-24T09:23:42.336Z,2.67
2022-08-24T09:26:19.737Z,1.93
2022-08-24T09:29:03.926Z,1.77
2022-08-24T09:32:01.907Z,2.00
2022-08-24T09:34:47.817Z,1.60
2022-08-24T09:37:35.381Z,1.30
2022-08-24T09:40:22.908Z,1.60
2022-08-24T09:43:37.750Z,1.57
2022-08-24T09:46:59.161Z,1.73
2022-08-24T09:50:26.124Z,1.60
2022-08-24T09:53:35.379Z,1.47
2022-08-24T09:56:28.283Z,1.50
2022-08-24T09:59:21.706Z,1.40
2022-08-24T10:02:22.723Z,1.63
2022-08-24T10:05:02.951Z,1.80
2022-08-24T10:07:43.129Z,1.60
2022-08-24T10:10:34.564Z,1.53
2022-08-24T10:13:20.599Z,1.60
2022-08-24T10:16:04.105Z,1.13
2022-08-24T10:18:58.212Z,1.40
2022-08-24T10:21:47.548Z,1.50
2022-08-24T10:24:58.553Z,1.47
2022-08-24T10:27:47.778Z,1.47
2022-08-24T10:30:41.060Z,1.57
2022-08-24T10:33:19.666Z,1.40
2022-08-24T10:36:15.773Z,1.27
2022-08-24T10:39:09.195Z,1.50
2022-08-24T10:42:57.100Z,1.47
2022-08-24T10:45:50.355Z,1.50
2022-08-24T10:48:44.842Z,1.73
2022-08-24T10:51:32.400Z,1.40
2022-08-24T10:54:01.538Z,1.50
2022-08-24T10:56:40.362Z,1.50
2022-08-24T10:59:23.543Z,1.50
2022-08-24T11:02:12.518Z,1.60
2022-08-24T11:04:41.662Z,1.57
2022-08-24T11:07:20.171Z,1.40
2022-08-24T11:09:53.319Z,1.50
2022-08-24T11:12:29.955Z,1.83
2022-08-24T11:15:01.771Z,1.83
2022-08-24T11:17:33.209Z,1.77
2022-08-24T11:20:01.318Z,1.70
2022-08-24T11:22:37.949Z,1.73
2022-08-24T11:25:16.082Z,1.80
2022-08-24T11:27:49.477Z,1.70
2022-08-24T11:30:26.356Z,1.67
2022-08-24T11:32:57.966Z,1.70
2022-08-24T11:35:35.785Z,1.83
2022-08-24T11:38:15.092Z,1.83
2022-08-24T11:40:48.554Z,1.80
2022-08-24T11:43:42.166Z,1.80
2022-08-24T11:46:27.392Z,1.60
2022-08-24T11:49:10.639Z,1.70
2022-08-24T11:51:53.111Z,1.60
2022-08-24T11:54:34.955Z,1.67
2022-08-24T11:57:09.983Z,1.77
2022-08-24T11:59:51.753Z,1.60
2022-08-24T12:02:28.480Z,1.43
2022-08-24T12:05:04.759Z,1.40
2022-08-24T12:07:51.024Z,1.50
2022-08-24T12:10:33.104Z,1.40
2022-08-24T12:13:09.224Z,1.33
2022-08-24T12:15:51.774Z,1.33
2022-08-24T12:18:31.078Z,1.43
2022-08-24T12:21:00.436Z,1.40
2022-08-24T12:23:41.856Z,1.50
2022-08-24T12:26:17.966Z,1.50
2022-08-24T12:28:54.721Z,1.30
2022-08-24T12:31:39.467Z,1.43
2022-08-24T12:34:22.211Z,1.60
2022-08-24T12:37:02.370Z,1.50
2022-08-24T12:39:40.336Z,1.50
2022-08-24T12:42:19.892Z,1.50
2022-08-24T12:44:54.655Z,1.27
2022-08-24T12:47:30.235Z,1.40
2022-08-24T12:50:06.853Z,1.50
2022-08-24T12:53:30.277Z,1.50
2022-08-24T12:56:14.824Z,1.63
2022-08-24T12:58:59.952Z,1.47
2022-08-24T13:01:35.591Z,1.60
2022-08-24T13:04:32.117Z,1.43
2022-08-24T13:07:07.388Z,1.50
2022-08-24T13:09:39.653Z,1.50
2022-08-24T13:13:03.536Z,1.57
2022-08-24T13:16:26.388Z,1.63
2022-08-24T13:19:15.917Z,1.63
2022-08-24T13:21:59.555Z,1.30
2022-08-24T13:24:59.652Z,1.50
2022-08-24T13:28:05.526Z,1.43
2022-08-24T13:31:06.756Z,1.57
2022-08-24T13:33:40.577Z,1.40
2022-08-24T13:36:55.198Z,1.50
2022-08-24T13:40:05.564Z,1.40
2022-08-24T13:43:04.310Z,1.30
2022-08-24T13:45:43.409Z,1.17
2022-08-24T13:48:30.248Z,1.43
2022-08-24T13:51:25.585Z,1.50
2022-08-24T13:54:19.947Z,1.70
2022-08-24T13:57:07.313Z,1.37
2022-08-24T14:00:03.465Z,1.43
2022-08-24T14:02:53.460Z,1.50
2022-08-24T14:05:35.687Z,1.23
2022-08-24T14:08:26.568Z,1.30
2022-08-24T14:11:09.989Z,1.20
2022-08-24T14:14:03.419Z,1.60
2022-08-24T14:17:03.260Z,1.13
2022-08-24T14:19:46.165Z,1.50
2022-08-24T14:22:31.160Z,1.50
2022-08-24T14:25:18.008Z,1.40
2022-08-24T14:27:49.463Z,1.40
2022-08-24T14:30:50.405Z,1.50
2022-08-24T14:33:34.116Z,1.20
2022-08-24T14:36:17.595Z,1.63
2022-08-24T14:39:05.292Z,1.43
2022-08-24T14:41:53.567Z,1.33
2022-08-24T14:44:41.765Z,1.30
2022-08-24T14:47:25.179Z,1.40
2022-08-24T14:50:12.887Z,1.40
2022-08-24T14:53:01.145Z,1.60
2022-08-24T14:55:37.845Z,1.47
2022-08-24T14:58:30.151Z,1.30
2022-08-24T15:01:38.156Z,1.33
2022-08-24T15:04:38.418Z,1.53
2022-08-24T15:07:31.077Z,1.40
2022-08-24T15:10:01.889Z,1.50
2022-08-24T15:12:44.816Z,1.27
2022-08-24T15:15:23.801Z,1.63
2022-08-24T15:18:06.681Z,1.70
2022-08-24T15:20:54.958Z,1.80
2022-08-24T15:23:33.613Z,1.70
2022-08-24T15:26:09.017Z,1.40
2022-08-24T15:28:39.317Z,1.50
2022-08-24T15:31:29.990Z,1.53
2022-08-24T15:34:01.165Z,1.50
2022-08-24T15:36:30.125Z,1.33
2022-08-24T15:38:58.271Z,1.50
2022-08-24T15:41:32.507Z,1.70
2022-08-24T15:44:07.460Z,1.40
2022-08-24T15:46:39.273Z,1.50
2022-08-24T15:49:17.276Z,1.87
2022-08-24T15:51:53.224Z,1.47
2022-08-24T15:54:36.190Z,1.60
2022-08-24T15:57:10.780Z,1.37
2022-08-24T15:59:50.123Z,1.60
2022-08-24T16:02:30.998Z,1.57
2022-08-24T16:05:17.039Z,1.90
2022-08-24T16:08:12.357Z,1.60
2022-08-24T16:10:44.724Z,1.70
2022-08-24T16:13:29.386Z,1.97
2022-08-24T16:16:07.186Z,1.97
2022-08-24T16:18:52.213Z,1.80
2022-08-24T16:21:28.646Z,1.67
2022-08-24T16:24:07.588Z,1.60
2022-08-24T16:26:54.412Z,1.60
2022-08-24T16:29:57.191Z,1.60
2022-08-24T16:32:33.715Z,1.60
2022-08-24T16:35:23.017Z,1.67
2022-08-24T16:37:52.313Z,1.40
2022-08-24T16:40:21.224Z,1.83
2022-08-24T16:42:49.832Z,1.83
2022-08-24T16:45:22.214Z,1.40
2022-08-24T16:47:52.095Z,1.67
2022-08-24T16:50:21.938Z,2.00
2022-08-24T16:52:50.406Z,1.33
2022-08-24T16:55:18.652Z,1.40
2022-08-24T16:57:48.163Z,1.47
2022-08-24T17:00:21.904Z,1.60
2022-08-24T17:02:51.817Z,1.60
2022-08-24T17:05:20.412Z,1.47
2022-08-24T17:07:50.188Z,1.40
2022-08-24T17:10:23.089Z,1.40
2022-08-24T17:12:51.807Z,1.40
2022-08-24T17:15:20.466Z,1.40
2022-08-24T17:17:59.940Z,1.80
2022-08-24T17:20:28.077Z,1.40
2022-08-24T17:22:56.644Z,1.50
2022-08-24T17:25:25.194Z,1.30
2022-08-24T17:27:54.818Z,1.57
2022-08-24T17:30:24.340Z,1.40
2022-08-24T17:32:53.280Z,1.33
2022-08-24T17:35:23.984Z,1.60
2022-08-24T17:37:53.732Z,1.30
2022-08-24T17:40:26.188Z,1.17
2022-08-24T17:42:54.341Z,1.40
2022-08-24T17:45:23.388Z,1.20
2022-08-24T17:47:52.795Z,1.60
2022-08-24T17:50:24.786Z,1.60
2022-08-24T17:52:58.985Z,1.47
2022-08-24T17:55:29.567Z,1.30
2022-08-24T17:57:58.990Z,1.40
2022-08-24T18:00:27.102Z,1.40
2022-08-24T18:02:55.311Z,1.30
2022-08-24T18:05:24.997Z,1.30
2022-08-24T18:07:56.591Z,1.30
2022-08-24T18:10:28.820Z,1.20
2022-08-24T18:12:58.140Z,1.30
2022-08-24T18:15:35.400Z,1.27
2022-08-24T18:18:08.948Z,1.50
2022-08-24T18:20:42.419Z,1.80
2022-08-24T18:23:12.033Z,1.30
2022-08-24T18:25:45.648Z,1.10
2022-08-24T18:28:15.037Z,1.40
2022-08-24T18:30:44.001Z,1.00
2022-08-24T18:33:12.237Z,1.40
2022-08-24T18:35:41.677Z,1.40
2022-08-24T18:38:10.789Z,1.40
2022-08-24T18:40:40.539Z,1.50
2022-08-24T18:43:23.337Z,1.40
2022-08-24T18:45:51.793Z,1.10
2022-08-24T18:48:21.175Z,1.47
2022-08-24T18:50:51.062Z,1.40
2022-08-24T18:53:19.906Z,1.30
2022-08-24T18:55:49.349Z,1.43
2022-08-24T18:58:17.546Z,1.20
2022-08-24T19:00:47.816Z,1.30
2022-08-24T19:03:28.485Z,1.20
2022-08-24T19:05:57.928Z,1.40
2022-08-24T19:08:26.024Z,1.43
2022-08-24T19:10:54.284Z,1.50
2022-08-24T19:13:22.349Z,1.53
2022-08-24T19:15:51.159Z,1.70
2022-08-24T19:18:21.570Z,1.23
2022-08-24T19:20:54.167Z,1.30
2022-08-24T19:23:27.594Z,1.60
2022-08-24T19:25:56.819Z,1.87
2022-08-24T19:28:27.004Z,1.30
2022-08-24T19:30:56.902Z,1.47
2022-08-24T19:33:28.748Z,1.80
2022-08-24T19:35:56.907Z,1.30
2022-08-24T19:38:26.622Z,1.70
2022-08-24T19:40:57.073Z,1.50
2022-08-24T19:43:27.266Z,1.63
2022-08-24T19:46:03.263Z,1.50
2022-08-24T19:48:33.095Z,1.40
2022-08-24T19:51:04.100Z,1.73
2022-08-24T19:53:35.999Z,1.73
2022-08-24T19:56:05.279Z,1.30
2022-08-24T19:58:45.182Z,1.23
2022-08-24T20:01:18.841Z,1.60
2022-08-24T20:03:47.179Z,1.70
2022-08-24T20:06:17.428Z,1.73
2022-08-24T20:08:48.451Z,1.90
2022-08-24T20:11:17.780Z,1.50
2022-08-24T20:13:46.171Z,1.60
2022-08-24T20:16:18.044Z,1.77
2022-08-24T20:18:46.903Z,1.90
2022-08-24T20:21:15.874Z,1.60
2022-08-24T20:23:45.377Z,1.60
2022-08-24T20:26:15.347Z,1.50
2022-08-24T20:28:47.311Z,1.87
2022-08-24T20:31:16.325Z,1.80
2022-08-24T20:33:44.509Z,1.77
2022-08-24T20:36:23.671Z,1.60
2022-08-24T20:38:52.361Z,1.80
2022-08-24T20:41:21.796Z,1.60
2022-08-24T20:43:50.334Z,1.50
2022-08-24T20:46:18.501Z,1.70
2022-08-24T20:48:55.370Z,1.60
2022-08-24T20:51:24.334Z,1.67
2022-08-24T20:53:52.444Z,1.37
2022-08-24T20:56:30.737Z,1.60
2022-08-24T20:59:01.659Z,1.80
2022-08-24T21:01:29.998Z,1.90
2022-08-24T21:04:02.800Z,1.90
2022-08-24T21:06:33.966Z,1.63
2022-08-24T21:09:02.382Z,1.73
2022-08-24T21:11:35.402Z,1.70
2022-08-24T21:14:05.973Z,1.50
2022-08-24T21:16:39.587Z,1.80
2022-08-24T21:19:32.712Z,1.97
2022-08-24T21:22:01.283Z,1.83
2022-08-24T21:24:29.434Z,1.77
2022-08-24T21:26:59.405Z,2.07
2022-08-24T21:29:30.430Z,1.80
2022-08-24T21:32:16.274Z,1.90
2022-08-24T21:34:44.394Z,2.00
2022-08-24T21:37:15.909Z,1.50
2022-08-24T21:39:47.457Z,1.63
2022-08-24T21:42:19.923Z,2.03
2022-08-24T21:44:48.632Z,1.43
2022-08-24T21:47:16.902Z,1.47
2022-08-24T21:49:45.009Z,1.70
2022-08-24T21:52:13.085Z,1.70
2022-08-24T21:54:41.202Z,1.60
2022-08-24T21:57:09.314Z,1.73
2022-08-24T21:59:39.647Z,1.73
2022-08-24T22:02:08.123Z,1.50
2022-08-24T22:04:38.794Z,1.97
2022-08-24T22:07:06.979Z,1.40
2022-08-24T22:09:35.048Z,2.07
2022-08-24T22:12:07.350Z,1.43
2022-08-24T22:14:35.478Z,1.53
2022-08-24T22:17:05.204Z,1.87
2022-08-24T22:19:33.414Z,1.70
2022-08-24T22:22:01.671Z,1.70
2022-08-24T22:24:29.794Z,1.80
2022-08-24T22:26:58.217Z,1.70
2022-08-24T22:29:26.303Z,1.60
2022-08-24T22:31:54.813Z,1.97
2022-08-24T22:34:24.169Z,1.73
2022-08-24T22:36:52.718Z,2.03
2022-08-24T22:39:22.319Z,1.53
2022-08-24T22:41:50.349Z,1.70
2022-08-24T22:44:22.801Z,1.90
2022-08-24T22:46:54.808Z,1.73
2022-08-24T22:49:33.251Z,1.90
2022-08-24T22:52:01.460Z,1.50
2022-08-24T22:54:29.779Z,1.93
2022-08-24T22:56:58.325Z,1.60
2022-08-24T22:59:29.741Z,1.77
2022-08-24T23:01:58.575Z,1.90
2022-08-24T23:04:33.021Z,1.80
2022-08-24T23:07:02.096Z,2.20
2022-08-24T23:09:32.004Z,1.70
2022-08-24T23:12:16.618Z,1.90
2022-08-24T23:14:45.053Z,1.67
2022-08-24T23:17:13.169Z,1.53
2022-08-24T23:20:08.817Z,1.80
2022-08-24T23:22:40.505Z,1.70
2022-08-24T23:25:12.501Z,1.83
2022-08-24T23:27:42.951Z,1.87
2022-08-24T23:30:14.828Z,1.73
2022-08-24T23:32:43.759Z,2.10
2022-08-24T23:35:13.301Z,1.80
2022-08-24T23:37:42.158Z,1.80
2022-08-24T23:40:11.739Z,1.93
2022-08-24T23:42:39.837Z,1.93
2022-08-24T23:45:12.226Z,2.00
2022-08-24T23:47:41.138Z,2.10
2022-08-24T23:50:11.082Z,1.83
2022-08-24T23:52:41.608Z,2.00
2022-08-24T23:55:21.229Z,2.07
2022-08-24T23:57:51.131Z,2.33
